Oglethorpe, Georgia
Current Conditions -  °F | °C
As of 8:35 PM on Thursday 18 Dec 2014 (Local Time) from KACJ Reporting Station
Clear Clear  
Wind Chill: 54°   Ceiling: Unl
Heat Index: 54°   Visibility: 10mi
Dew Point: 30°   Wind: 6mph
Humidity: 41%   Direction: 300°WNW
Pressure: 30.14"   Gusts: NA
Location:  32.29°N, 84.06°W
Report Text: KACJ 190135Z AUTO 30005KT 10SM CLR 12/M01 A3014 RMK AO2
Loading
Personal Weather Stations






























Interactive Weather Map New forecast layout! Learn more

10-Day Weather Forecast

Advertisements
Track Severe Weather on mobile